createdAt,value
2022-12-24T00:00:14.005Z,8.36
2022-12-24T00:02:41.638Z,8.33
2022-12-24T00:05:09.844Z,8.31
2022-12-24T00:07:37.355Z,8.29
2022-12-24T00:10:05.991Z,8.32
2022-12-24T00:12:33.731Z,8.36
2022-12-24T00:15:02.643Z,8.46
2022-12-24T00:17:30.224Z,8.53
2022-12-24T00:19:57.759Z,8.52
2022-12-24T00:22:25.325Z,8.50
2022-12-24T00:24:52.837Z,8.54
2022-12-24T00:27:20.359Z,8.50
2022-12-24T00:29:47.851Z,8.56
2022-12-24T00:32:16.732Z,8.61
2022-12-24T00:34:44.957Z,8.56
2022-12-24T00:37:12.470Z,8.58
2022-12-24T00:39:40.014Z,8.53
2022-12-24T00:42:07.520Z,8.49
2022-12-24T00:44:35.084Z,8.51
2022-12-24T00:47:05.522Z,8.54
2022-12-24T00:49:39.387Z,8.43
2022-12-24T00:52:06.890Z,8.57
2022-12-24T00:54:34.404Z,8.51
2022-12-24T00:57:01.914Z,8.56
2022-12-24T00:59:29.459Z,8.45
2022-12-24T01:01:57.140Z,8.47
2022-12-24T01:04:42.591Z,8.37
2022-12-24T01:07:11.472Z,8.30
2022-12-24T01:09:39.379Z,8.25
2022-12-24T01:12:07.005Z,8.17
2022-12-24T01:14:34.553Z,8.29
2022-12-24T01:17:02.069Z,8.26
2022-12-24T01:19:29.834Z,8.19
2022-12-24T01:21:57.347Z,8.22
2022-12-24T01:24:26.329Z,8.15
2022-12-24T01:26:53.869Z,8.10
2022-12-24T01:29:21.472Z,8.15
2022-12-24T01:31:49.007Z,8.09
2022-12-24T01:34:16.564Z,8.07
2022-12-24T01:36:44.069Z,8.11
2022-12-24T01:39:11.599Z,8.10
2022-12-24T01:41:58.173Z,8.08
2022-12-24T01:44:35.214Z,8.15
2022-12-24T01:47:08.592Z,8.21
2022-12-24T01:49:36.961Z,8.21
2022-12-24T01:52:06.784Z,8.17
2022-12-24T01:54:36.561Z,8.19
2022-12-24T01:57:08.631Z,8.20
2022-12-24T01:59:37.885Z,8.16
2022-12-24T02:02:05.744Z,8.03
2022-12-24T02:04:38.287Z,8.10
2022-12-24T02:07:05.836Z,7.98
2022-12-24T02:09:34.345Z,7.90
2022-12-24T02:12:02.105Z,7.82
2022-12-24T02:14:32.709Z,7.81
2022-12-24T02:17:03.421Z,7.79
2022-12-24T02:20:20.909Z,7.71
2022-12-24T02:23:04.247Z,7.68
2022-12-24T02:25:46.848Z,7.80
2022-12-24T02:28:17.951Z,7.81
2022-12-24T02:30:49.871Z,7.80
2022-12-24T02:33:24.222Z,7.81
2022-12-24T02:36:00.534Z,7.80
2022-12-24T02:38:30.660Z,7.67
2022-12-24T02:41:01.433Z,7.80
2022-12-24T02:43:33.467Z,7.72
2022-12-24T02:46:06.388Z,7.75
2022-12-24T02:48:34.613Z,7.64
2022-12-24T02:51:08.781Z,7.57
2022-12-24T02:53:36.645Z,7.49
2022-12-24T02:56:17.555Z,7.49
2022-12-24T02:58:55.758Z,7.40
2022-12-24T03:01:33.273Z,7.23
2022-12-24T03:04:08.371Z,7.18
2022-12-24T03:06:41.974Z,7.23
2022-12-24T03:09:15.448Z,7.25
2022-12-24T03:11:46.930Z,7.20
2022-12-24T03:14:15.551Z,7.21
2022-12-24T03:16:45.246Z,7.14
2022-12-24T03:19:12.916Z,7.13
2022-12-24T03:21:42.524Z,7.12
2022-12-24T03:24:11.008Z,7.16
2022-12-24T03:26:39.798Z,7.23
2022-12-24T03:29:08.176Z,7.19
2022-12-24T03:31:45.057Z,7.15
2022-12-24T03:34:13.152Z,7.08
2022-12-24T03:36:40.677Z,7.09
2022-12-24T03:39:08.323Z,7.13
2022-12-24T03:41:35.876Z,7.18
2022-12-24T03:44:03.429Z,7.33
2022-12-24T03:46:30.933Z,7.29
2022-12-24T03:49:00.228Z,7.23
2022-12-24T03:51:28.404Z,7.19
2022-12-24T03:53:58.330Z,7.20
2022-12-24T03:56:26.197Z,7.19
2022-12-24T03:58:53.954Z,7.20
2022-12-24T04:01:21.678Z,7.18
2022-12-24T04:03:49.271Z,7.31
2022-12-24T04:06:18.897Z,7.24
2022-12-24T04:08:46.736Z,7.22
2022-12-24T04:11:15.831Z,7.38
2022-12-24T04:13:43.596Z,7.48
2022-12-24T04:16:13.171Z,7.41
2022-12-24T04:18:41.802Z,7.23
2022-12-24T04:21:09.885Z,7.21
2022-12-24T04:23:40.157Z,7.13
2022-12-24T04:26:09.552Z,7.11
2022-12-24T04:28:37.735Z,7.11
2022-12-24T04:31:07.055Z,6.98
2022-12-24T04:33:35.126Z,7.01
2022-12-24T04:36:03.744Z,6.99
2022-12-24T04:38:32.073Z,7.12
2022-12-24T04:41:02.146Z,7.07
2022-12-24T04:43:29.970Z,7.04
2022-12-24T04:45:57.610Z,7.13
2022-12-24T04:48:25.181Z,7.18
2022-12-24T04:50:52.780Z,7.13
2022-12-24T04:53:20.294Z,7.04
2022-12-24T04:55:47.914Z,6.92
2022-12-24T04:58:16.785Z,6.91
2022-12-24T05:00:44.323Z,6.89
2022-12-24T05:03:11.934Z,6.95
2022-12-24T05:05:39.936Z,7.04
2022-12-24T05:08:08.081Z,6.99
2022-12-24T05:10:35.661Z,7.00
2022-12-24T05:13:03.446Z,6.91
2022-12-24T05:15:32.295Z,6.95
2022-12-24T05:17:59.806Z,6.94
2022-12-24T05:20:27.361Z,6.86
2022-12-24T05:23:12.646Z,6.71
2022-12-24T05:25:58.259Z,6.61
2022-12-24T05:28:25.941Z,6.51
2022-12-24T05:30:54.902Z,6.78
2022-12-24T05:33:22.505Z,6.70
2022-12-24T05:35:52.383Z,6.60
2022-12-24T05:38:20.069Z,6.54
2022-12-24T05:40:47.993Z,6.81
2022-12-24T05:43:15.563Z,6.90
2022-12-24T05:45:43.309Z,6.82
2022-12-24T05:48:12.383Z,6.84
2022-12-24T05:50:40.699Z,6.72
2022-12-24T05:53:09.059Z,6.64
2022-12-24T05:55:36.558Z,6.54
2022-12-24T05:58:04.083Z,6.45
2022-12-24T06:00:31.595Z,6.38
2022-12-24T06:02:59.213Z,6.35
2022-12-24T06:05:28.171Z,6.35
2022-12-24T06:07:55.722Z,6.32
2022-12-24T06:10:23.300Z,6.28
2022-12-24T06:12:50.895Z,6.28
2022-12-24T06:15:23.644Z,6.32
2022-12-24T06:17:51.785Z,6.66
2022-12-24T06:20:19.380Z,6.62
2022-12-24T06:22:48.242Z,6.58
2022-12-24T06:25:15.859Z,6.61
2022-12-24T06:27:43.607Z,6.58
2022-12-24T06:30:11.940Z,6.62
2022-12-24T06:32:39.492Z,6.49
2022-12-24T06:35:07.397Z,6.44
2022-12-24T06:37:34.896Z,6.54
2022-12-24T06:40:04.042Z,6.46
2022-12-24T06:42:31.550Z,6.40
2022-12-24T06:45:03.865Z,6.40
2022-12-24T06:47:35.597Z,6.43
2022-12-24T06:50:03.250Z,6.48
2022-12-24T06:52:30.787Z,6.51
2022-12-24T06:54:58.344Z,6.43
2022-12-24T06:57:27.213Z,6.41
2022-12-24T06:59:54.749Z,6.34
2022-12-24T07:02:22.411Z,6.36
2022-12-24T07:04:50.002Z,6.37
2022-12-24T07:07:17.546Z,6.40
2022-12-24T07:09:45.156Z,6.49
2022-12-24T07:12:12.665Z,6.79
2022-12-24T07:14:41.632Z,6.99
2022-12-24T07:17:10.273Z,6.98
2022-12-24T07:19:37.825Z,6.95
2022-12-24T07:22:10.250Z,6.95
2022-12-24T07:24:41.100Z,7.06
2022-12-24T07:27:08.856Z,6.97
2022-12-24T07:29:36.357Z,7.04
2022-12-24T07:32:05.792Z,6.99
2022-12-24T07:34:33.400Z,7.00
2022-12-24T07:37:00.906Z,7.06
2022-12-24T07:39:28.501Z,7.01
2022-12-24T07:41:56.004Z,7.04
2022-12-24T07:44:23.651Z,7.04
2022-12-24T07:46:51.238Z,7.03
2022-12-24T07:49:20.173Z,7.00
2022-12-24T07:51:47.723Z,6.95
2022-12-24T07:54:15.447Z,6.94
2022-12-24T07:56:43.699Z,6.99
2022-12-24T07:59:13.452Z,7.02
2022-12-24T08:01:41.512Z,6.99
2022-12-24T08:04:09.282Z,7.01
2022-12-24T08:06:38.332Z,6.99
2022-12-24T08:09:06.177Z,6.90
2022-12-24T08:11:33.699Z,6.77
2022-12-24T08:14:01.221Z,6.75
2022-12-24T08:16:28.818Z,6.79
2022-12-24T08:18:56.389Z,6.77
2022-12-24T08:21:24.125Z,6.79
2022-12-24T08:23:53.045Z,6.86
2022-12-24T08:26:20.553Z,7.00
2022-12-24T08:28:48.077Z,6.99
2022-12-24T08:31:15.929Z,7.07
2022-12-24T08:33:43.483Z,7.13
2022-12-24T08:36:11.240Z,7.29
2022-12-24T08:38:38.781Z,7.37
2022-12-24T08:41:07.715Z,7.43
2022-12-24T08:43:35.531Z,7.55
2022-12-24T08:46:04.601Z,7.55
2022-12-24T08:48:32.439Z,7.58
2022-12-24T08:51:00.147Z,7.59
2022-12-24T08:53:27.697Z,7.67
2022-12-24T08:56:02.871Z,7.65
2022-12-24T08:58:32.151Z,7.64
2022-12-24T09:01:00.285Z,7.66
2022-12-24T09:03:28.515Z,7.72
2022-12-24T09:05:56.612Z,7.75
2022-12-24T09:08:24.140Z,7.80
2022-12-24T09:10:51.634Z,7.83
2022-12-24T09:13:19.232Z,7.85
2022-12-24T09:15:55.153Z,7.80
2022-12-24T09:18:22.845Z,7.80
2022-12-24T09:20:56.833Z,7.81
2022-12-24T09:23:24.971Z,7.86
2022-12-24T09:25:52.494Z,7.87
2022-12-24T09:28:20.097Z,7.94
2022-12-24T09:30:57.936Z,7.97
2022-12-24T09:33:25.467Z,7.94
2022-12-24T09:35:53.318Z,8.00
2022-12-24T09:38:21.523Z,8.11
2022-12-24T09:40:50.348Z,8.18
2022-12-24T09:43:20.396Z,8.26
2022-12-24T09:46:02.683Z,8.29
2022-12-24T09:48:33.198Z,8.34
2022-12-24T09:51:04.657Z,8.42
2022-12-24T09:53:37.892Z,8.36
2022-12-24T09:56:11.167Z,8.44
2022-12-24T09:58:42.288Z,8.54
2022-12-24T10:01:13.347Z,8.52
2022-12-24T10:03:42.424Z,8.42
2022-12-24T10:06:13.271Z,8.33
2022-12-24T10:08:49.433Z,8.28
2022-12-24T10:11:21.203Z,8.12
2022-12-24T10:14:04.991Z,8.02
2022-12-24T10:16:38.411Z,7.92
2022-12-24T10:19:15.479Z,7.85
2022-12-24T10:21:49.542Z,7.80
2022-12-24T10:24:22.229Z,7.78
2022-12-24T10:26:51.965Z,7.79
2022-12-24T10:29:22.096Z,7.81
2022-12-24T10:31:56.745Z,7.83
2022-12-24T10:34:29.163Z,7.87
2022-12-24T10:36:57.480Z,7.83
2022-12-24T10:39:27.025Z,7.79
2022-12-24T10:41:57.763Z,7.86
2022-12-24T10:44:27.165Z,7.95
2022-12-24T10:46:54.889Z,8.09
2022-12-24T10:49:31.173Z,8.28
2022-12-24T10:52:01.363Z,8.37
2022-12-24T10:54:34.397Z,8.45
2022-12-24T10:57:03.131Z,8.56
2022-12-24T10:59:32.400Z,8.75
2022-12-24T11:02:01.171Z,8.83
2022-12-24T11:04:31.632Z,8.92
2022-12-24T11:07:01.060Z,9.03
2022-12-24T11:09:30.468Z,9.08
2022-12-24T11:12:02.548Z,9.23
2022-12-24T11:14:36.284Z,9.45
2022-12-24T11:17:04.245Z,9.51
2022-12-24T11:19:35.452Z,9.44
2022-12-24T11:22:05.487Z,9.43
2022-12-24T11:24:34.662Z,9.43
2022-12-24T11:27:31.682Z,9.44
2022-12-24T11:30:21.608Z,9.28
2022-12-24T11:32:50.334Z,9.21
2022-12-24T11:35:22.213Z,9.10
2022-12-24T11:37:50.260Z,9.07
2022-12-24T11:40:21.963Z,9.07
2022-12-24T11:42:53.299Z,9.16
2022-12-24T11:45:24.277Z,9.30
2022-12-24T11:47:53.576Z,9.30
2022-12-24T11:50:26.013Z,9.32
2022-12-24T11:52:58.039Z,9.39
2022-12-24T11:55:31.515Z,9.56
2022-12-24T11:58:01.789Z,9.69
2022-12-24T12:00:29.710Z,9.72
2022-12-24T12:02:58.464Z,9.87
2022-12-24T12:05:29.682Z,9.82
2022-12-24T12:07:59.998Z,9.91
2022-12-24T12:10:31.174Z,9.94
2022-12-24T12:13:01.576Z,10.07
2022-12-24T12:15:30.984Z,10.33
2022-12-24T12:18:04.582Z,10.35
2022-12-24T12:20:35.809Z,10.49
2022-12-24T12:23:07.039Z,10.74
2022-12-24T12:25:39.024Z,10.85
2022-12-24T12:28:09.896Z,10.84
2022-12-24T12:30:38.432Z,10.69
2022-12-24T12:33:10.533Z,10.67
2022-12-24T12:35:40.931Z,10.32
2022-12-24T12:38:12.529Z,10.64
2022-12-24T12:40:51.718Z,10.43
2022-12-24T12:43:29.813Z,10.53
2022-12-24T12:45:59.939Z,10.57
2022-12-24T12:48:42.188Z,10.68
2022-12-24T12:51:16.685Z,10.73
2022-12-24T12:53:55.081Z,10.56
2022-12-24T12:56:28.413Z,10.62
2022-12-24T12:59:00.139Z,10.48
2022-12-24T13:01:33.214Z,10.32
2022-12-24T13:04:21.394Z,10.26
2022-12-24T13:07:09.993Z,10.08
2022-12-24T13:10:03.493Z,9.91
2022-12-24T13:12:43.816Z,9.85
2022-12-24T13:15:41.867Z,9.87
2022-12-24T13:18:21.401Z,9.78
2022-12-24T13:20:51.349Z,9.75
2022-12-24T13:23:22.601Z,9.75
2022-12-24T13:25:51.704Z,9.77
2022-12-24T13:28:37.020Z,9.72
2022-12-24T13:31:29.701Z,9.65
2022-12-24T13:34:02.585Z,9.68
2022-12-24T13:37:18.044Z,9.60
2022-12-24T13:40:15.914Z,9.61
2022-12-24T13:42:57.084Z,9.44
2022-12-24T13:45:43.651Z,9.43
2022-12-24T13:48:30.184Z,9.37
2022-12-24T13:50:59.787Z,9.39
2022-12-24T13:53:30.093Z,9.44
2022-12-24T13:56:03.418Z,9.52
2022-12-24T14:01:01.398Z,9.40
2022-12-24T14:03:31.416Z,9.37
2022-12-24T14:06:00.781Z,9.27
2022-12-24T14:08:31.741Z,9.24
2022-12-24T14:11:14.081Z,9.21
2022-12-24T14:13:56.593Z,9.12
2022-12-24T14:16:25.239Z,9.11
2022-12-24T14:19:00.010Z,9.03
2022-12-24T14:21:30.991Z,8.93
2022-12-24T14:24:00.524Z,8.95
2022-12-24T14:26:32.151Z,9.00
2022-12-24T14:29:03.415Z,8.92
2022-12-24T14:31:30.984Z,8.88
2022-12-24T14:34:08.845Z,8.83
2022-12-24T14:36:36.833Z,8.77
2022-12-24T14:39:07.082Z,8.58
2022-12-24T14:41:43.821Z,8.51
2022-12-24T14:44:19.556Z,8.41
2022-12-24T14:46:50.035Z,8.35
2022-12-24T14:49:28.767Z,8.39
2022-12-24T14:52:03.919Z,8.39
2022-12-24T14:54:36.649Z,8.22
2022-12-24T14:57:22.971Z,8.20
2022-12-24T14:59:52.535Z,8.27
2022-12-24T15:02:41.819Z,8.18
2022-12-24T15:05:15.339Z,7.99
2022-12-24T15:07:47.789Z,7.86
2022-12-24T15:10:36.715Z,7.73
2022-12-24T15:13:07.595Z,7.66
2022-12-24T15:15:35.526Z,7.56
2022-12-24T15:18:04.576Z,7.45
2022-12-24T15:20:32.636Z,7.38
2022-12-24T15:23:00.290Z,7.38
2022-12-24T15:25:29.843Z,7.43
2022-12-24T15:27:57.911Z,7.49
2022-12-24T15:30:28.657Z,7.50
2022-12-24T15:32:58.903Z,7.55
2022-12-24T15:35:45.766Z,7.33
2022-12-24T15:38:27.266Z,7.10
2022-12-24T15:40:55.756Z,6.91
2022-12-24T15:43:23.490Z,6.76
2022-12-24T15:45:52.482Z,6.65
2022-12-24T15:48:23.610Z,6.55
2022-12-24T15:50:53.079Z,6.58
2022-12-24T15:53:24.996Z,6.45
2022-12-24T15:56:07.611Z,6.32
2022-12-24T15:58:36.863Z,6.21
2022-12-24T16:01:29.067Z,6.14
2022-12-24T16:04:00.940Z,6.17
2022-12-24T16:06:29.424Z,6.13
2022-12-24T16:08:59.671Z,6.01
2022-12-24T16:11:34.986Z,5.87
2022-12-24T16:14:10.232Z,5.94
2022-12-24T16:16:40.655Z,6.20
2022-12-24T16:19:08.937Z,6.06
2022-12-24T16:21:38.181Z,5.92
2022-12-24T16:24:08.611Z,5.77
2022-12-24T16:26:38.100Z,5.67
2022-12-24T16:29:05.794Z,5.54
2022-12-24T16:31:35.323Z,5.47
2022-12-24T16:34:05.037Z,5.40
2022-12-24T16:36:33.285Z,5.32
2022-12-24T16:39:18.728Z,5.32
2022-12-24T16:42:03.231Z,5.27
2022-12-24T16:44:30.771Z,5.19
2022-12-24T16:47:00.169Z,5.20
2022-12-24T16:49:29.409Z,5.14
2022-12-24T16:51:56.961Z,5.14
2022-12-24T16:54:24.493Z,5.04
2022-12-24T16:56:52.308Z,5.10
2022-12-24T16:59:23.269Z,5.06
2022-12-24T17:01:51.578Z,4.99
2022-12-24T17:04:19.782Z,4.98
2022-12-24T17:06:49.594Z,4.95
2022-12-24T17:09:17.737Z,4.91
2022-12-24T17:11:45.334Z,4.89
2022-12-24T17:14:20.030Z,4.79
2022-12-24T17:16:47.770Z,4.75
2022-12-24T17:19:15.400Z,4.66
2022-12-24T17:21:42.951Z,4.72
2022-12-24T17:24:12.396Z,4.73
2022-12-24T17:26:39.972Z,4.64
2022-12-24T17:29:07.603Z,4.62
2022-12-24T17:31:35.205Z,4.70
2022-12-24T17:34:02.900Z,4.78
2022-12-24T17:36:30.466Z,4.85
2022-12-24T17:38:58.034Z,4.92
2022-12-24T17:41:26.915Z,4.96
2022-12-24T17:43:54.479Z,5.00
2022-12-24T17:46:23.699Z,5.02
2022-12-24T17:48:52.301Z,4.95
2022-12-24T17:51:21.422Z,4.92
2022-12-24T17:53:50.270Z,4.86
2022-12-24T17:56:18.239Z,4.89
2022-12-24T17:58:47.518Z,4.92
2022-12-24T18:01:16.942Z,4.88
2022-12-24T18:03:44.749Z,4.93
2022-12-24T18:06:15.190Z,4.83
2022-12-24T18:08:44.338Z,4.92
2022-12-24T18:11:13.083Z,4.85
2022-12-24T18:13:40.710Z,4.92
2022-12-24T18:16:16.388Z,4.92
2022-12-24T18:18:43.938Z,4.96
2022-12-24T18:21:11.791Z,5.01
2022-12-24T18:23:39.608Z,5.13
2022-12-24T18:26:07.132Z,5.21
2022-12-24T18:28:34.684Z,5.27
2022-12-24T18:31:04.925Z,5.30
2022-12-24T18:33:34.606Z,5.36
2022-12-24T18:36:02.316Z,5.46
2022-12-24T18:38:30.028Z,5.47
2022-12-24T18:41:03.169Z,5.52
2022-12-24T18:43:30.713Z,5.49
2022-12-24T18:45:58.257Z,5.49
2022-12-24T18:48:25.910Z,5.46
2022-12-24T18:50:58.866Z,5.47
2022-12-24T18:53:26.660Z,5.39
2022-12-24T18:55:54.238Z,5.35
2022-12-24T18:58:21.834Z,5.39
2022-12-24T19:00:49.389Z,5.38
2022-12-24T19:03:17.144Z,5.50
2022-12-24T19:05:44.906Z,5.55
2022-12-24T19:08:47.160Z,5.54
2022-12-24T19:11:01.665Z,5.49
2022-12-24T19:13:29.487Z,5.53
2022-12-24T19:15:57.226Z,5.56
2022-12-24T19:18:24.872Z,5.60
2022-12-24T19:20:52.446Z,5.54
2022-12-24T19:23:21.356Z,5.52
2022-12-24T19:25:50.144Z,5.54
2022-12-24T19:28:21.271Z,5.56
2022-12-24T19:30:51.708Z,5.64
2022-12-24T19:33:19.267Z,5.51
2022-12-24T19:35:46.807Z,5.53
2022-12-24T19:38:14.354Z,5.49
2022-12-24T19:40:43.246Z,5.50
2022-12-24T19:43:10.793Z,5.53
2022-12-24T19:45:38.329Z,5.50
2022-12-24T19:48:06.396Z,5.35
2022-12-24T19:50:33.948Z,5.34
2022-12-24T19:53:01.534Z,5.41
2022-12-24T19:55:29.071Z,5.36
2022-12-24T19:57:57.937Z,5.36
2022-12-24T20:00:25.641Z,5.43
2022-12-24T20:02:53.293Z,5.53
2022-12-24T20:05:21.078Z,5.50
2022-12-24T20:07:48.629Z,5.56
2022-12-24T20:10:16.497Z,5.58
2022-12-24T20:12:44.072Z,5.63
2022-12-24T20:15:13.203Z,5.65
2022-12-24T20:17:40.786Z,5.65
2022-12-24T20:20:09.357Z,5.59
2022-12-24T20:22:36.942Z,5.60
2022-12-24T20:25:04.799Z,5.57
2022-12-24T20:27:32.297Z,5.60
2022-12-24T20:29:59.843Z,5.64
2022-12-24T20:32:29.610Z,5.64
2022-12-24T20:34:57.229Z,5.70
2022-12-24T20:37:24.782Z,5.72
2022-12-24T20:39:52.298Z,5.69
2022-12-24T20:42:19.853Z,5.73
2022-12-24T20:44:49.192Z,5.66
2022-12-24T20:47:16.818Z,5.67
2022-12-24T20:49:46.010Z,5.62
2022-12-24T20:52:13.690Z,5.57
2022-12-24T20:54:41.230Z,5.60
2022-12-24T20:57:08.829Z,5.62
2022-12-24T20:59:36.555Z,5.69
2022-12-24T21:02:04.173Z,5.73
2022-12-24T21:04:31.830Z,5.65
2022-12-24T21:07:00.901Z,5.73
2022-12-24T21:09:28.465Z,5.67
2022-12-24T21:12:13.742Z,5.62
2022-12-24T21:14:41.288Z,5.63
2022-12-24T21:17:15.168Z,5.62
2022-12-24T21:19:43.352Z,5.63
2022-12-24T21:22:12.276Z,5.64
2022-12-24T21:24:40.714Z,5.66
2022-12-24T21:27:08.307Z,5.71
2022-12-24T21:29:35.812Z,5.70
2022-12-24T21:32:03.445Z,5.71
2022-12-24T21:34:30.964Z,5.72
2022-12-24T21:36:58.527Z,5.78
2022-12-24T21:39:27.384Z,5.80
2022-12-24T21:41:54.881Z,5.77
2022-12-24T21:44:22.487Z,5.70
2022-12-24T21:46:50.182Z,5.70
2022-12-24T21:49:35.329Z,5.71
2022-12-24T21:52:02.880Z,5.77
2022-12-24T21:54:31.992Z,5.77
2022-12-24T21:57:19.016Z,5.73
2022-12-24T21:59:46.703Z,5.67
2022-12-24T22:02:15.511Z,5.65
2022-12-24T22:04:43.825Z,5.64
2022-12-24T22:07:38.362Z,5.62
2022-12-24T22:10:26.783Z,5.65
2022-12-24T22:12:55.078Z,5.57
2022-12-24T22:15:23.282Z,5.56
2022-12-24T22:17:50.944Z,5.68
2022-12-24T22:20:18.678Z,5.57
2022-12-24T22:22:46.253Z,5.58
2022-12-24T22:25:15.216Z,5.57
2022-12-24T22:27:43.053Z,5.53
2022-12-24T22:30:11.522Z,5.52
2022-12-24T22:32:39.018Z,5.49
2022-12-24T22:35:07.098Z,5.44
2022-12-24T22:37:34.647Z,5.47
2022-12-24T22:40:02.412Z,5.49
2022-12-24T22:42:33.805Z,5.49
2022-12-24T22:45:01.471Z,5.55
2022-12-24T22:47:28.999Z,5.47
2022-12-24T22:49:56.660Z,5.42
2022-12-24T22:52:24.289Z,5.39
2022-12-24T22:54:51.847Z,5.32
2022-12-24T22:57:19.384Z,5.33
2022-12-24T22:59:49.307Z,5.30
2022-12-24T23:02:22.134Z,5.22
2022-12-24T23:04:53.492Z,5.27
2022-12-24T23:07:21.072Z,5.28
2022-12-24T23:09:48.646Z,5.27
2022-12-24T23:12:36.550Z,5.24
2022-12-24T23:15:05.464Z,5.31
2022-12-24T23:17:33.011Z,5.32
2022-12-24T23:20:02.324Z,5.31
2022-12-24T23:22:29.830Z,5.35
2022-12-24T23:24:57.403Z,5.44
2022-12-24T23:27:24.996Z,5.49
2022-12-24T23:29:52.519Z,5.33
2022-12-24T23:32:22.822Z,5.32
2022-12-24T23:34:50.397Z,5.34
2022-12-24T23:37:17.937Z,5.26
2022-12-24T23:39:45.948Z,5.19
2022-12-24T23:42:13.497Z,5.25
2022-12-24T23:44:40.991Z,5.28
2022-12-24T23:47:08.608Z,5.28
2022-12-24T23:49:37.607Z,5.29
2022-12-24T23:52:05.342Z,5.28
2022-12-24T23:54:32.860Z,5.28
2022-12-24T23:57:00.373Z,5.26
2022-12-24T23:59:27.977Z,5.28
